createdAt,value
2019-04-07T00:00:08.275Z,21.3
2019-04-07T00:00:58.574Z,21.3
2019-04-07T00:01:47.728Z,21.3
2019-04-07T00:02:36.875Z,21.3
2019-04-07T00:03:26.587Z,21.3
2019-04-07T00:04:16.923Z,21.3
2019-04-07T00:05:18.533Z,21.3
2019-04-07T00:05:56.627Z,21.3
2019-04-07T00:06:46.864Z,21.3
2019-04-07T00:07:36.955Z,21.3
2019-04-07T00:08:27.208Z,21.3
2019-04-07T00:09:17.586Z,21.3
2019-04-07T00:10:06.070Z,21.3
2019-04-07T00:10:55.815Z,21.3
2019-04-07T00:11:47.150Z,21.3
2019-04-07T00:12:37.496Z,21.3
2019-04-07T00:13:25.901Z,21.3
2019-04-07T00:14:17.237Z,21.3
2019-04-07T00:15:10.290Z,21.3
2019-04-07T00:15:57.327Z,21.3
2019-04-07T00:16:46.796Z,21.3
2019-04-07T00:17:36.673Z,21.3
2019-04-07T00:18:27.616Z,21.3
2019-04-07T00:19:18.694Z,21.3
2019-04-07T00:20:09.802Z,21.3
2019-04-07T00:20:58.942Z,21.3
2019-04-07T00:21:48.412Z,21.3
2019-04-07T00:22:38.274Z,21.3
2019-04-07T00:23:26.989Z,21.3
2019-04-07T00:24:18.055Z,21.3
2019-04-07T00:25:07.742Z,21.3
2019-04-07T00:25:57.696Z,21.3
2019-04-07T00:26:47.475Z,21.3
2019-04-07T00:27:38.371Z,21.3
2019-04-07T00:28:26.797Z,21.3
2019-04-07T00:29:17.891Z,21.3
2019-04-07T00:30:09.361Z,21.3
2019-04-07T00:30:57.374Z,21.3
2019-04-07T00:31:47.724Z,21.3
2019-04-07T00:32:37.724Z,21.3
2019-04-07T00:33:29.829Z,21.3
2019-04-07T00:34:19.182Z,21.3
2019-04-07T00:35:20.917Z,21.3
2019-04-07T00:36:01.296Z,21.3
2019-04-07T00:36:48.906Z,21.3
2019-04-07T00:37:40.042Z,21.3
2019-04-07T00:38:28.329Z,21.3
2019-04-07T00:39:20.675Z,21.3
2019-04-07T00:40:11.096Z,21.3
2019-04-07T00:41:01.348Z,21.3
2019-04-07T00:41:50.696Z,21.3
2019-04-07T00:42:39.313Z,21.3
2019-04-07T00:43:31.937Z,21.2
2019-04-07T00:44:21.348Z,21.3
2019-04-07T00:45:10.740Z,21.3
2019-04-07T00:45:59.798Z,21.2
2019-04-07T00:46:51.856Z,21.3
2019-04-07T00:47:41.961Z,21.3
2019-04-07T00:48:30.116Z,21.2
2019-04-07T00:49:20.525Z,21.2
2019-04-07T00:50:11.771Z,21.2
2019-04-07T00:50:59.244Z,21.3
2019-04-07T00:51:52.889Z,21.2
2019-04-07T00:52:41.200Z,21.2
2019-04-07T00:53:30.953Z,21.2
2019-04-07T00:54:20.399Z,21.2
2019-04-07T00:55:12.145Z,21.2
2019-04-07T00:56:01.396Z,21.2
2019-04-07T00:56:49.066Z,21.2
2019-04-07T00:57:40.677Z,21.2
2019-04-07T00:58:32.517Z,21.2
2019-04-07T00:59:21.721Z,21.2
2019-04-07T01:00:11.739Z,21.2
2019-04-07T01:01:00.932Z,21.2
2019-04-07T01:01:50.394Z,21.2
2019-04-07T01:02:43.177Z,21.2
2019-04-07T01:03:31.662Z,21.2
2019-04-07T01:04:21.574Z,21.2
2019-04-07T01:05:09.683Z,21.2
2019-04-07T01:06:01.177Z,21.2
2019-04-07T01:06:51.120Z,21.2
2019-04-07T01:07:43.120Z,21.2
2019-04-07T01:08:33.520Z,21.2
2019-04-07T01:09:21.332Z,21.2
2019-04-07T01:10:11.880Z,21.2
2019-04-07T01:11:00.314Z,21.2
2019-04-07T01:11:53.783Z,21.2
2019-04-07T01:12:42.289Z,21.2
2019-04-07T01:13:32.467Z,21.2
2019-04-07T01:14:20.564Z,21.2
2019-04-07T01:16:02.551Z,21.2
2019-04-07T01:16:52.871Z,21.2
2019-04-07T01:17:41.424Z,21.2
2019-04-07T01:18:32.644Z,21.2
2019-04-07T01:19:24.340Z,21.2
2019-04-07T01:21:52.598Z,21.2
2019-04-07T01:22:42.969Z,21.2
2019-04-07T01:24:25.187Z,21.2
2019-04-07T01:30:13.876Z,21.2
2019-04-07T01:57:45.269Z,21.2
2019-04-07T02:00:14.777Z,21.2
2019-04-07T02:01:05.344Z,21.2
2019-04-07T02:01:55.932Z,21.2
2019-04-07T02:02:45.500Z,21.2
2019-04-07T02:03:38.232Z,21.2
2019-04-07T02:04:26.007Z,21.2
2019-04-07T02:05:16.038Z,21.2
2019-04-07T02:06:09.382Z,21.2
2019-04-07T02:06:56.404Z,21.2
2019-04-07T02:07:46.239Z,21.2
2019-04-07T02:08:35.279Z,21.2
2019-04-07T02:09:29.034Z,21.2
2019-04-07T02:10:16.864Z,21.2
2019-04-07T02:11:07.175Z,21.2
2019-04-07T02:11:56.069Z,21.2
2019-04-07T02:12:46.581Z,21.2
2019-04-07T02:13:38.331Z,21.2
2019-04-07T02:14:27.158Z,21.2
2019-04-07T02:15:17.384Z,21.3
2019-04-07T02:16:06.466Z,21.2
2019-04-07T02:16:57.701Z,21.2
2019-04-07T02:17:48.069Z,21.3
2019-04-07T02:18:36.869Z,21.3
2019-04-07T02:19:27.246Z,21.3
2019-04-07T02:20:16.635Z,21.3
2019-04-07T02:21:09.673Z,21.2
2019-04-07T02:21:56.719Z,21.3
2019-04-07T02:22:47.019Z,21.3
2019-04-07T02:23:35.993Z,21.3
2019-04-07T02:24:29.939Z,21.3
2019-04-07T02:25:18.008Z,21.3
2019-04-07T02:26:08.144Z,21.3
2019-04-07T02:26:56.597Z,21.3
2019-04-07T02:27:49.488Z,21.3
2019-04-07T02:28:38.319Z,21.3
2019-04-07T02:29:29.149Z,21.3
2019-04-07T02:30:20.251Z,21.3
2019-04-07T02:31:09.386Z,21.3
2019-04-07T02:31:58.987Z,21.3
2019-04-07T02:32:52.206Z,21.3
2019-04-07T02:33:39.885Z,21.3
2019-04-07T02:34:30.173Z,21.3
2019-04-07T02:35:18.825Z,21.3
2019-04-07T02:36:36.228Z,21.3
2019-04-07T02:37:00.026Z,21.3
2019-04-07T02:37:49.962Z,21.3
2019-04-07T02:38:39.857Z,21.3
2019-04-07T02:39:29.804Z,21.3
2019-04-07T02:40:19.131Z,21.3
2019-04-07T02:41:10.807Z,21.3
2019-04-07T02:41:58.759Z,21.3
2019-04-07T02:42:50.119Z,21.3
2019-04-07T02:43:36.915Z,21.3
2019-04-07T02:44:31.484Z,21.3
2019-04-07T02:45:20.224Z,21.3
2019-04-07T02:46:09.606Z,21.3
2019-04-07T02:46:59.345Z,21.3
2019-04-07T02:47:48.727Z,21.3
2019-04-07T02:48:39.440Z,21.3
2019-04-07T02:49:29.190Z,21.3
2019-04-07T02:50:19.656Z,21.3
2019-04-07T02:51:09.649Z,21.3
2019-04-07T02:51:58.504Z,21.3
2019-04-07T02:52:52.816Z,21.3
2019-04-07T02:53:41.551Z,21.3
2019-04-07T02:54:30.255Z,21.3
2019-04-07T02:55:18.361Z,21.3
2019-04-07T02:56:11.369Z,21.3
2019-04-07T02:56:58.897Z,21.3
2019-04-07T02:57:51.387Z,21.3
2019-04-07T02:58:40.207Z,21.3
2019-04-07T02:59:31.131Z,21.3
2019-04-07T03:00:22.082Z,21.3
2019-04-07T03:01:11.462Z,21.3
2019-04-07T03:02:00.406Z,21.3
2019-04-07T03:02:51.520Z,21.3
2019-04-07T03:03:43.251Z,21.3
2019-04-07T03:07:26.988Z,21.3
2019-04-07T03:08:00.041Z,21.3
2019-04-07T03:08:53.094Z,21.3
2019-04-07T03:10:30.025Z,21.3
2019-04-07T03:11:24.600Z,21.3
2019-04-07T03:12:10.378Z,21.3
2019-04-07T03:13:03.151Z,21.3
2019-04-07T03:13:51.939Z,21.3
2019-04-07T03:14:42.359Z,21.3
2019-04-07T03:15:31.069Z,21.3
2019-04-07T03:16:22.930Z,21.3
2019-04-07T03:17:11.822Z,21.3
2019-04-07T03:18:02.150Z,21.3
2019-04-07T03:18:51.173Z,21.3
2019-04-07T03:19:42.653Z,21.3
2019-04-07T03:20:33.235Z,21.3
2019-04-07T03:21:22.424Z,21.3
2019-04-07T03:22:12.620Z,21.3
2019-04-07T03:23:04.097Z,21.3
2019-04-07T03:23:54.287Z,21.3
2019-04-07T03:24:42.821Z,21.3
2019-04-07T03:25:32.949Z,21.3
2019-04-07T03:26:24.261Z,21.3
2019-04-07T03:27:13.155Z,21.3
2019-04-07T03:28:03.276Z,21.3
2019-04-07T03:28:54.512Z,21.3
2019-04-07T03:29:59.435Z,21.3
2019-04-07T03:30:54.566Z,21.3
2019-04-07T03:31:48.020Z,21.3
2019-04-07T03:33:10.991Z,21.3
2019-04-07T03:34:28.900Z,21.3
2019-04-07T03:35:32.414Z,21.3
2019-04-07T03:37:50.317Z,21.3
2019-04-07T03:38:10.124Z,21.3
2019-04-07T03:39:00.883Z,21.3
2019-04-07T03:40:06.380Z,21.3
2019-04-07T03:40:39.074Z,21.3
2019-04-07T03:41:43.689Z,21.3
2019-04-07T03:42:19.139Z,21.3
2019-04-07T03:43:10.324Z,21.3
2019-04-07T03:44:03.237Z,21.3
2019-04-07T03:44:51.042Z,21.3
2019-04-07T03:45:39.388Z,21.3
2019-04-07T03:46:30.576Z,21.3
2019-04-07T03:47:20.818Z,21.3
2019-04-07T03:48:11.823Z,21.3
2019-04-07T03:48:59.926Z,21.3
2019-04-07T03:49:50.846Z,21.3
2019-04-07T03:50:41.267Z,21.3
2019-04-07T03:51:30.639Z,21.3
2019-04-07T03:52:22.370Z,21.3
2019-04-07T03:53:10.652Z,21.3
2019-04-07T03:54:00.581Z,21.3
2019-04-07T03:54:50.838Z,21.3
2019-04-07T03:55:42.354Z,21.3
2019-04-07T03:56:31.712Z,21.3
2019-04-07T03:57:20.320Z,21.3
2019-04-07T03:58:12.754Z,21.3
2019-04-07T03:59:00.908Z,21.3
2019-04-07T03:59:51.884Z,21.3
2019-04-07T04:00:41.070Z,21.3
2019-04-07T04:01:33.015Z,21.3
2019-04-07T04:02:22.196Z,21.3
2019-04-07T04:03:12.846Z,21.3
2019-04-07T04:04:02.786Z,21.3
2019-04-07T04:04:52.519Z,21.3
2019-04-07T04:05:41.850Z,21.3
2019-04-07T04:06:33.956Z,21.3
2019-04-07T04:07:42.306Z,21.3
2019-04-07T04:08:11.784Z,21.3
2019-04-07T04:09:02.662Z,21.3
2019-04-07T04:09:51.614Z,21.3
2019-04-07T04:10:43.561Z,21.3
2019-04-07T04:11:32.272Z,21.3
2019-04-07T04:12:21.118Z,21.3
2019-04-07T04:13:13.042Z,21.3
2019-04-07T04:14:02.919Z,21.3
2019-04-07T04:14:52.700Z,21.3
2019-04-07T04:15:44.662Z,21.3
2019-04-07T04:16:32.066Z,21.3
2019-04-07T04:17:22.887Z,21.3
2019-04-07T04:18:12.422Z,21.3
2019-04-07T04:19:06.608Z,21.3
2019-04-07T04:19:53.322Z,21.3
2019-04-07T04:20:42.917Z,21.3
2019-04-07T04:21:34.371Z,21.3
2019-04-07T04:22:23.994Z,21.3
2019-04-07T04:23:16.323Z,21.3
2019-04-07T04:24:05.801Z,21.3
2019-04-07T04:24:54.010Z,21.3
2019-04-07T04:25:47.052Z,21.3
2019-04-07T04:26:32.829Z,21.4
2019-04-07T04:27:24.376Z,21.4
2019-04-07T04:28:12.572Z,21.4
2019-04-07T04:29:06.647Z,21.5
2019-04-07T04:29:58.759Z,21.5
2019-04-07T04:30:45.167Z,21.6
2019-04-07T04:31:32.479Z,21.6
2019-04-07T04:32:25.966Z,21.6
2019-04-07T04:33:13.308Z,21.6
2019-04-07T04:34:04.359Z,21.6
2019-04-07T04:34:54.630Z,21.6
2019-04-07T04:35:45.984Z,21.7
2019-04-07T04:37:57.781Z,21.8
2019-04-07T04:38:15.645Z,21.8
2019-04-07T04:39:05.294Z,21.8
2019-04-07T04:39:57.891Z,21.8
2019-04-07T04:40:46.762Z,21.8
2019-04-07T04:41:37.409Z,21.8
2019-04-07T04:42:26.808Z,21.8
2019-04-07T04:43:17.834Z,21.6
2019-04-07T04:44:06.628Z,21.6
2019-04-07T04:44:56.603Z,21.5
2019-04-07T04:45:46.121Z,21.4
2019-04-07T04:46:37.168Z,21.4
2019-04-07T04:47:27.370Z,21.4
2019-04-07T04:48:15.965Z,21.4
2019-04-07T04:49:07.723Z,21.4
2019-04-07T04:49:55.971Z,21.4
2019-04-07T04:50:47.116Z,21.4
2019-04-07T04:51:44.631Z,21.4
2019-04-07T04:52:25.560Z,21.4
2019-04-07T04:53:15.943Z,21.4
2019-04-07T04:54:07.071Z,21.4
2019-04-07T04:54:57.597Z,21.4
2019-04-07T04:55:48.253Z,21.4
2019-04-07T04:56:36.128Z,21.4
2019-04-07T04:57:28.328Z,21.3
2019-04-07T06:05:11.024Z,20.9
2019-04-07T06:06:02.908Z,20.9
2019-04-07T06:07:00.304Z,20.9
2019-04-07T06:07:41.533Z,20.9
2019-04-07T06:08:48.785Z,20.9
2019-04-07T06:09:26.313Z,20.9
2019-04-07T06:10:11.700Z,20.9
2019-04-07T06:11:06.873Z,20.9
2019-04-07T06:11:53.229Z,20.9
2019-04-07T06:12:50.406Z,20.9
2019-04-07T06:13:34.528Z,20.9
2019-04-07T06:14:22.610Z,20.9
2019-04-07T06:15:11.745Z,20.9
2019-04-07T06:16:02.003Z,20.9
2019-04-07T06:16:57.189Z,20.9
2019-04-07T06:17:43.574Z,20.9
2019-04-07T06:18:38.414Z,20.9
2019-04-07T06:19:22.500Z,20.9
2019-04-07T06:20:20.168Z,20.9
2019-04-07T06:21:01.482Z,20.9
2019-04-07T06:21:53.657Z,20.9
2019-04-07T06:22:42.817Z,20.9
2019-04-07T06:23:34.096Z,20.9
2019-04-07T06:24:32.676Z,20.9
2019-04-07T06:25:14.072Z,20.9
2019-04-07T06:26:06.647Z,20.9
2019-04-07T06:26:53.290Z,20.9
2019-04-07T06:27:48.909Z,20.9
2019-04-07T06:28:31.598Z,21
2019-04-07T06:29:28.943Z,20.9
2019-04-07T06:30:14.175Z,21
2019-04-07T06:31:07.070Z,20.9
2019-04-07T06:31:52.693Z,21
2019-04-07T06:32:47.261Z,21
2019-04-07T06:33:40.361Z,21
2019-04-07T06:34:22.629Z,21
2019-04-07T06:35:18.200Z,21
2019-04-07T06:36:03.844Z,21
2019-04-07T06:37:00.064Z,21
2019-04-07T06:37:43.936Z,21
2019-04-07T06:38:55.315Z,21
2019-04-07T06:39:24.647Z,21
2019-04-07T06:40:15.446Z,21
2019-04-07T06:41:06.113Z,21
2019-04-07T06:41:53.426Z,21
2019-04-07T06:42:47.658Z,21
2019-04-07T06:43:40.117Z,21
2019-04-07T06:44:26.971Z,21
2019-04-07T06:45:14.266Z,21
2019-04-07T06:46:03.839Z,21
2019-04-07T06:46:53.557Z,21
2019-04-07T06:47:43.297Z,21.1
2019-04-07T06:48:37.967Z,21
2019-04-07T06:49:29.464Z,21
2019-04-07T06:50:18.943Z,21
2019-04-07T06:51:06.570Z,21
2019-04-07T06:51:56.060Z,21
2019-04-07T06:52:44.777Z,21
2019-04-07T06:53:33.796Z,21
2019-04-07T06:54:26.967Z,21
2019-04-07T06:55:13.559Z,21
2019-04-07T06:56:07.974Z,21
2019-04-07T06:56:55.487Z,21
2019-04-07T06:57:46.504Z,21
2019-04-07T06:58:42.904Z,21
2019-04-07T06:59:24.130Z,21
2019-04-07T07:00:13.947Z,21
2019-04-07T07:01:07.319Z,21
2019-04-07T07:01:59.825Z,21
2019-04-07T07:02:46.857Z,21
2019-04-07T07:05:24.609Z,21
2019-04-07T07:06:04.741Z,21
2019-04-07T07:07:09.851Z,21
2019-04-07T07:07:54.026Z,21
2019-04-07T07:08:59.383Z,21
2019-04-07T07:09:33.852Z,21
2019-04-07T07:10:43.599Z,21
2019-04-07T07:11:29.120Z,21
2019-04-07T07:12:00.587Z,21
2019-04-07T07:12:50.686Z,21
2019-04-07T07:13:54.631Z,21
2019-04-07T07:14:51.728Z,21
2019-04-07T07:15:40.478Z,21
2019-04-07T07:16:23.929Z,21
2019-04-07T07:17:18.433Z,21
2019-04-07T07:18:06.741Z,21
2019-04-07T07:19:01.063Z,21
2019-04-07T07:20:34.999Z,21
2019-04-07T07:21:25.713Z,21
2019-04-07T07:22:21.319Z,21
2019-04-07T07:23:18.683Z,21
2019-04-07T07:23:53.991Z,21
2019-04-07T07:25:03.073Z,21
2019-04-07T07:25:38.218Z,21
2019-04-07T07:26:28.263Z,21
2019-04-07T07:27:15.358Z,21
2019-04-07T07:28:04.262Z,21
2019-04-07T07:28:53.041Z,21
2019-04-07T07:29:53.842Z,21
2019-04-07T07:30:33.451Z,21
2019-04-07T07:31:29.809Z,21
2019-04-07T07:32:15.896Z,21
2019-04-07T07:33:11.653Z,21.1
2019-04-07T07:33:54.907Z,21
2019-04-07T07:34:45.580Z,21.1
2019-04-07T07:35:34.878Z,21.1
2019-04-07T07:36:28.444Z,21
2019-04-07T07:37:15.826Z,21.1
2019-04-07T07:38:12.648Z,21.1
2019-04-07T10:06:17.319Z,32.6
2019-04-07T10:06:58.550Z,32.3
2019-04-07T10:07:53.187Z,32.1
2019-04-07T10:08:39.546Z,31.9
2019-04-07T10:09:30.164Z,31.8
2019-04-07T10:10:21.353Z,31.6
2019-04-07T10:11:10.181Z,31.4
2019-04-07T10:12:00.407Z,31.3
2019-04-07T10:12:51.524Z,31.1
2019-04-07T10:13:41.477Z,30.9
2019-04-07T10:14:31.731Z,30.8
2019-04-07T10:15:21.356Z,30.6
2019-04-07T10:16:16.509Z,30.4
2019-04-07T10:17:00.978Z,30.3
2019-04-07T10:17:51.760Z,30.1
2019-04-07T10:18:40.095Z,30
2019-04-07T10:19:32.744Z,29.9
2019-04-07T10:20:27.461Z,29.8
2019-04-07T10:21:12.053Z,29.6
2019-04-07T10:22:05.415Z,29.4
2019-04-07T10:22:52.578Z,29.3
2019-04-07T10:23:42.973Z,29.2
2019-04-07T10:24:33.103Z,29.1
2019-04-07T10:25:21.092Z,28.9
2019-04-07T10:26:11.698Z,28.8
2019-04-07T10:27:02.909Z,28.8
2019-04-07T10:27:53.041Z,28.6
2019-04-07T10:28:51.723Z,28.5
2019-04-07T10:29:31.866Z,28.4
2019-04-07T10:30:24.193Z,28.3
2019-04-07T10:31:11.541Z,28.2
2019-04-07T10:32:02.388Z,28.1
2019-04-07T10:32:53.055Z,28
2019-04-07T10:33:42.716Z,27.9
2019-04-07T10:35:22.428Z,27.7
2019-04-07T10:36:12.717Z,27.6
2019-04-07T10:37:09.081Z,27.6
2019-04-07T10:37:58.625Z,27.4
2019-04-07T10:38:45.083Z,27.4
2019-04-07T10:39:32.321Z,29.1
2019-04-07T10:40:28.582Z,32.2
2019-04-07T10:41:15.133Z,52.9
2019-04-07T10:42:07.209Z,62.7
2019-04-07T10:43:00.276Z,64.3
2019-04-07T10:43:45.707Z,61.4
2019-04-07T10:44:36.069Z,59.1
2019-04-07T10:46:15.758Z,56.9
2019-04-07T10:47:04.904Z,55.9
2019-04-07T10:47:56.756Z,55.1
2019-04-07T10:48:43.344Z,54.2
2019-04-07T10:49:34.059Z,53.4
2019-04-07T10:50:26.829Z,52.3
2019-04-07T10:51:14.945Z,51.8
2019-04-07T10:52:05.569Z,51.1
2019-04-07T10:52:56.449Z,50.4
2019-04-07T10:53:44.757Z,49.7
2019-04-07T10:54:33.898Z,49.4
2019-04-07T10:55:25.321Z,48.9
2019-04-07T10:56:15.129Z,58.2
2019-04-07T10:57:06.478Z,67.1
2019-04-07T10:57:56.236Z,68.6
2019-04-07T10:58:46.084Z,68
2019-04-07T10:59:35.123Z,65.6
2019-04-07T11:00:26.849Z,62.6
2019-04-07T11:01:15.506Z,59.9
2019-04-07T11:02:05.742Z,59.6
2019-04-07T11:03:02.013Z,61.1
2019-04-07T11:03:45.221Z,62.9
2019-04-07T11:04:35.832Z,63.8
2019-04-07T11:05:26.749Z,63.9
2019-04-07T11:06:19.158Z,62.8
2019-04-07T11:07:06.421Z,61.1
2019-04-07T11:07:54.676Z,59.8
2019-04-07T11:08:46.529Z,58.9
2019-04-07T11:09:35.401Z,58.8
2019-04-07T11:10:44.163Z,58.9
2019-04-07T11:11:16.292Z,59.3
2019-04-07T11:12:07.243Z,59.2
2019-04-07T11:12:58.733Z,58.8
2019-04-07T11:13:46.957Z,58
2019-04-07T11:14:36.596Z,57.3
2019-04-07T11:15:27.049Z,56.3
2019-04-07T11:16:16.232Z,55.4
2019-04-07T11:17:10.027Z,54.6
2019-04-07T11:17:55.813Z,53.7
2019-04-07T11:18:46.595Z,52.9
2019-04-07T11:19:39.767Z,52.1
2019-04-07T11:20:23.900Z,51.3
2019-04-07T11:21:16.599Z,50.7
2019-04-07T11:22:06.755Z,50
2019-04-07T11:22:58.089Z,49.4
2019-04-07T11:23:47.882Z,48.8
2019-04-07T11:24:38.080Z,48.2
2019-04-07T11:25:26.172Z,47.6
2019-04-07T11:26:18.019Z,47.1
2019-04-07T11:27:06.784Z,46.5
2019-04-07T11:27:57.193Z,45.9
2019-04-07T11:28:48.031Z,45.4
2019-04-07T11:29:43.681Z,44.9
2019-04-07T11:30:28.684Z,44.4
2019-04-07T11:31:17.880Z,43.9
2019-04-07T11:32:06.507Z,43.5
2019-04-07T11:32:57.583Z,43.1
2019-04-07T11:33:46.973Z,42.6
2019-04-07T11:34:36.860Z,42.2
2019-04-07T11:35:34.572Z,41.8
2019-04-07T11:36:26.426Z,41.3
2019-04-07T11:37:13.183Z,40.9
2019-04-07T11:37:58.425Z,40.6
2019-04-07T11:38:47.419Z,40.3
2019-04-07T11:39:38.114Z,39.9
2019-04-07T11:40:28.108Z,39.6
2019-04-07T11:41:25.558Z,39.1
2019-04-07T11:42:09.939Z,38.8
2019-04-07T11:42:58.881Z,38.5
2019-04-07T11:43:48.223Z,38.3
2019-04-07T11:44:38.139Z,37.9
2019-04-07T11:45:28.905Z,37.6
2019-04-07T11:46:19.801Z,37.3
2019-04-07T11:47:07.578Z,37.1
2019-04-07T11:47:59.662Z,36.8
2019-04-07T11:48:49.056Z,36.5
2019-04-07T11:49:46.080Z,36.3
2019-04-07T11:50:28.681Z,35.9
2019-04-07T11:51:19.501Z,35.7
2019-04-07T11:52:08.757Z,35.4
2019-04-07T11:52:59.277Z,35.3
2019-04-07T11:53:49.281Z,35
2019-04-07T11:54:40.286Z,34.8
2019-04-07T11:55:33.388Z,34.5
2019-04-07T11:56:18.539Z,34.3
2019-04-07T11:57:08.668Z,34.1
2019-04-07T11:58:36.834Z,33.9
2019-04-07T11:58:56.321Z,33.6
2019-04-07T11:59:47.376Z,33.4
2019-04-07T12:00:43.062Z,33.3
2019-04-07T12:01:29.242Z,33.1
2019-04-07T12:02:25.292Z,32.9
2019-04-07T12:03:09.489Z,32.7
2019-04-07T12:04:03.031Z,32.5
2019-04-07T12:06:19.151Z,32.1
2019-04-07T12:07:00.821Z,31.9
2019-04-07T12:08:01.718Z,31.8
2019-04-07T12:08:42.421Z,31.6
2019-04-07T12:09:31.495Z,31.4
2019-04-07T12:10:21.378Z,31.3
2019-04-07T12:11:14.755Z,31.2
2019-04-07T12:12:02.432Z,31
2019-04-07T12:12:51.552Z,30.8
2019-04-07T12:13:48.465Z,30.7
2019-04-07T12:14:32.690Z,30.6
2019-04-07T12:15:33.511Z,30.4
2019-04-07T12:16:12.305Z,30.3
2019-04-07T12:17:15.043Z,30.1
2019-04-07T12:17:52.407Z,30
2019-04-07T12:18:42.195Z,29.9
2019-04-07T12:19:34.373Z,29.8
2019-04-07T12:20:22.609Z,29.7
2019-04-07T12:21:28.086Z,29.6
2019-04-07T12:22:05.494Z,29.4
2019-04-07T12:22:54.944Z,29.4
2019-04-07T12:23:44.918Z,29.3
2019-04-07T12:24:48.010Z,29.1
2019-04-07T12:25:23.787Z,29
2019-04-07T12:26:11.536Z,28.9
2019-04-07T12:27:06.631Z,28.8
2019-04-07T12:27:51.900Z,28.7
2019-04-07T12:28:43.439Z,28.7
2019-04-07T12:29:32.139Z,28.6
2019-04-07T12:30:27.381Z,28.4
2019-04-07T12:31:14.824Z,28.4
2019-04-07T12:32:03.873Z,28.3
2019-04-07T12:32:53.015Z,28.2
2019-04-07T12:33:44.698Z,28.1
2019-04-07T12:34:34.362Z,28
2019-04-07T12:35:26.180Z,27.9
2019-04-07T12:36:15.916Z,27.9
2019-04-07T12:37:11.897Z,27.8
2019-04-07T12:37:54.179Z,27.7
2019-04-07T12:38:49.311Z,27.6
2019-04-07T12:39:38.683Z,27.5
2019-04-07T12:40:28.982Z,27.4
2019-04-07T12:41:33.211Z,27.3
2019-04-07T12:42:12.319Z,27.3
2019-04-07T12:42:55.107Z,27.3
2019-04-07T12:43:52.646Z,27.1
2019-04-07T12:44:33.224Z,27.1
2019-04-07T12:45:23.534Z,27.1
2019-04-07T12:46:14.411Z,26.9
2019-04-07T12:47:04.849Z,26.9
2019-04-07T12:47:54.890Z,26.9
2019-04-07T12:48:45.232Z,26.8
2019-04-07T12:49:47.482Z,26.7
2019-04-07T12:50:26.336Z,26.6
2019-04-07T12:51:17.561Z,26.6
2019-04-07T12:52:04.286Z,26.6
2019-04-07T12:52:55.035Z,26.5
2019-04-07T12:53:46.423Z,26.4
2019-04-07T12:54:37.545Z,26.3
2019-04-07T12:55:25.058Z,26.3
2019-04-07T12:56:15.664Z,26.3
2019-04-07T12:57:12.105Z,26.2
2019-04-07T12:57:56.426Z,26.1
2019-04-07T12:58:53.192Z,26.1
2019-04-07T12:59:35.810Z,26
2019-04-07T13:00:30.667Z,26
2019-04-07T13:01:35.372Z,25.9
2019-04-07T13:02:28.481Z,25.9
2019-04-07T13:03:15.486Z,25.8
2019-04-07T13:04:05.693Z,25.8
2019-04-07T13:04:55.980Z,25.7
2019-04-07T13:05:45.081Z,25.7
2019-04-07T13:06:37.543Z,25.6
2019-04-07T13:07:25.746Z,25.6
2019-04-07T13:08:15.797Z,25.5
2019-04-07T13:09:04.444Z,25.5
2019-04-07T13:09:56.268Z,25.4
2019-04-07T13:10:47.150Z,25.4
2019-04-07T13:11:53.311Z,25.3
2019-04-07T13:12:30.311Z,25.3
2019-04-07T13:13:16.982Z,25.3
2019-04-07T13:14:13.945Z,25.3
2019-04-07T13:14:55.690Z,25.2
2019-04-07T13:15:54.283Z,25.1
2019-04-07T13:16:35.892Z,25.1
2019-04-07T13:17:32.888Z,25.1
2019-04-07T13:18:16.422Z,25
2019-04-07T13:19:17.674Z,25
2019-04-07T13:19:59.258Z,24.9
2019-04-07T13:20:53.446Z,24.9
2019-04-07T13:21:37.119Z,24.9
2019-04-07T13:22:26.153Z,24.9
2019-04-07T13:23:18.718Z,24.8
2019-04-07T13:24:43.910Z,24.8
2019-04-07T13:25:11.809Z,24.8
2019-04-07T13:26:04.896Z,24.7
2019-04-07T13:26:54.096Z,24.6
2019-04-07T13:27:44.397Z,24.6
2019-04-07T13:28:33.440Z,24.6
2019-04-07T13:29:23.617Z,24.6
2019-04-07T13:30:13.828Z,24.6
2019-04-07T13:31:03.440Z,24.5
2019-04-07T13:31:57.538Z,24.4
2019-04-07T13:33:04.851Z,24.4
2019-04-07T13:33:34.820Z,24.4
2019-04-07T13:34:38.375Z,24.4
2019-04-07T13:35:11.502Z,24.4
2019-04-07T13:36:03.800Z,24.3
2019-04-07T13:36:56.659Z,24.3
2019-04-07T13:37:47.320Z,24.3
2019-04-07T13:38:33.905Z,24.2
2019-04-07T13:39:23.750Z,24.2
2019-04-07T13:40:19.658Z,24.1
2019-04-07T13:41:04.648Z,24.1
2019-04-07T13:42:02.009Z,24.1
2019-04-07T13:42:48.159Z,24.1
2019-04-07T13:43:39.587Z,24.1
2019-04-07T13:44:24.206Z,24
2019-04-07T13:45:19.898Z,24
2019-04-07T13:46:17.033Z,24
2019-04-07T13:46:54.300Z,23.9
2019-04-07T13:47:49.097Z,23.9
2019-04-07T13:48:36.032Z,23.9
2019-04-07T13:49:35.790Z,23.9
2019-04-07T13:50:16.345Z,23.8
2019-04-07T13:51:05.261Z,23.8
2019-04-07T13:52:51.476Z,23.8
2019-04-07T13:53:51.206Z,23.8
2019-04-07T13:54:32.917Z,23.8
2019-04-07T13:55:18.385Z,23.7
2019-04-07T13:56:04.990Z,23.7
2019-04-07T13:56:56.870Z,23.7
2019-04-07T13:57:45.337Z,23.7
2019-04-07T13:58:39.994Z,23.6
2019-04-07T13:59:26.213Z,23.6
2019-04-07T14:00:21.708Z,23.6
2019-04-07T14:01:05.098Z,23.6
2019-04-07T14:02:10.534Z,23.6
2019-04-07T14:02:46.391Z,23.6
2019-04-07T14:03:38.644Z,23.5
2019-04-07T14:04:40.726Z,23.5
2019-04-07T14:07:13.189Z,23.4
2019-04-07T14:08:01.616Z,23.4
2019-04-07T14:08:50.597Z,23.4
2019-04-07T14:09:42.235Z,23.4
2019-04-07T14:10:39.374Z,23.4
2019-04-07T14:11:23.055Z,23.4
2019-04-07T14:12:17.879Z,23.3
2019-04-07T14:13:07.992Z,23.3
2019-04-07T14:13:51.222Z,23.3
2019-04-07T14:14:42.838Z,23.3
2019-04-07T16:07:14.574Z,21.9
2019-04-07T16:08:01.045Z,21.9
2019-04-07T16:09:00.137Z,21.9
2019-04-07T16:10:10.310Z,21.9
2019-04-07T16:11:00.638Z,21.9
2019-04-07T16:11:59.423Z,21.9
2019-04-07T16:13:02.521Z,21.9
2019-04-07T16:13:32.698Z,21.9
2019-04-07T16:14:20.825Z,21.9
2019-04-07T16:15:10.763Z,21.9
2019-04-07T16:16:00.179Z,21.9
2019-04-07T16:16:55.402Z,21.9
2019-04-07T16:17:46.545Z,21.9
2019-04-07T16:18:29.959Z,21.9
2019-04-07T16:19:56.546Z,21.9
2019-04-07T16:20:46.655Z,21.9
2019-04-07T16:21:42.064Z,21.9
2019-04-07T16:22:27.705Z,21.9
2019-04-07T16:23:23.216Z,21.9
2019-04-07T16:24:07.324Z,21.9
2019-04-07T16:25:01.775Z,21.9
2019-04-07T16:25:46.348Z,21.9
2019-04-07T16:26:42.100Z,21.8
2019-04-07T16:27:28.193Z,21.8
2019-04-07T16:28:20.644Z,21.8
2019-04-07T16:29:09.115Z,21.8
2019-04-07T16:29:58.013Z,21.8
2019-04-07T16:30:52.960Z,21.8
2019-04-07T16:31:37.500Z,21.8
2019-04-07T16:32:30.886Z,21.8
2019-04-07T16:33:17.669Z,21.8
2019-04-07T16:34:13.153Z,21.8
2019-04-07T16:34:56.110Z,21.8
2019-04-07T16:36:00.050Z,21.8
2019-04-07T16:36:38.761Z,21.8
2019-04-07T16:37:33.546Z,21.8
2019-04-07T16:38:20.608Z,21.8
2019-04-07T16:39:11.955Z,21.8
2019-04-07T16:39:56.623Z,21.8
2019-04-07T16:40:50.171Z,21.8
2019-04-07T16:41:36.772Z,21.8
2019-04-07T16:42:28.659Z,21.8
2019-04-07T16:43:24.073Z,21.8
2019-04-07T16:44:13.975Z,21.8
2019-04-07T16:44:58.260Z,21.8
2019-04-07T16:45:52.752Z,21.8
2019-04-07T16:46:39.088Z,21.7
2019-04-07T16:47:39.457Z,21.7
2019-04-07T16:48:17.876Z,21.8
2019-04-07T16:49:21.541Z,21.8
2019-04-07T16:49:57.371Z,21.7
2019-04-07T16:50:57.754Z,21.7
2019-04-07T16:51:40.446Z,21.8
2019-04-07T16:52:36.999Z,21.8
2019-04-07T16:53:18.398Z,21.7
2019-04-07T16:54:16.325Z,21.7
2019-04-07T16:54:59.637Z,21.7
2019-04-07T16:55:59.303Z,21.7
2019-04-07T16:56:39.139Z,21.7
2019-04-07T16:57:35.953Z,21.7
2019-04-07T16:58:19.781Z,21.7
2019-04-07T16:59:14.519Z,21.7
2019-04-07T17:00:00.028Z,21.7
2019-04-07T17:00:50.816Z,21.7
2019-04-07T17:01:39.909Z,21.7
2019-04-07T17:02:29.550Z,21.7
2019-04-07T17:03:18.062Z,21.7
2019-04-07T17:04:10.003Z,21.7
2019-04-07T17:05:00.412Z,21.7
2019-04-07T17:05:50.286Z,21.7
2019-04-07T17:06:42.681Z,21.7
2019-04-07T17:07:32.855Z,21.6
2019-04-07T17:08:32.363Z,21.6
2019-04-07T17:09:12.138Z,21.6
2019-04-07T17:10:07.961Z,21.6
2019-04-07T17:10:52.665Z,21.6
2019-04-07T17:11:46.628Z,21.6
2019-04-07T17:12:34.013Z,21.6
2019-04-07T17:13:47.768Z,21.6
2019-04-07T17:14:15.135Z,21.6
2019-04-07T17:15:09.301Z,21.6
2019-04-07T17:15:59.194Z,21.6
2019-04-07T17:16:50.875Z,21.6
2019-04-07T17:17:33.900Z,21.6
2019-04-07T17:18:30.383Z,21.6
2019-04-07T17:19:13.587Z,21.6
2019-04-07T17:20:05.756Z,21.6
2019-04-07T17:20:53.655Z,21.6
2019-04-07T17:21:47.982Z,21.6
2019-04-07T17:22:35.870Z,21.6
2019-04-07T17:23:29.524Z,21.6
2019-04-07T17:24:14.209Z,21.6
2019-04-07T17:25:15.573Z,21.6
2019-04-07T17:25:57.512Z,21.6
2019-04-07T17:26:45.967Z,21.6
2019-04-07T17:27:36.759Z,21.6
2019-04-07T17:28:24.667Z,21.6
2019-04-07T17:29:20.254Z,21.6
2019-04-07T17:30:03.544Z,21.6
2019-04-07T17:31:02.418Z,21.6